sensor_id;sensor_type;location;lat;lon;timestamp;P1;durP1;ratioP1;P2;durP2;ratioP2
64011;SDS011;50211;52.768;12.124;2022-12-07T00:01:36;7.30;;;4.00;;
64011;SDS011;50211;52.768;12.124;2022-12-07T00:04:04;7.63;;;3.93;;
64011;SDS011;50211;52.768;12.124;2022-12-07T00:06:31;7.07;;;3.47;;
64011;SDS011;50211;52.768;12.124;2022-12-07T00:08:58;7.47;;;4.30;;
64011;SDS011;50211;52.768;12.124;2022-12-07T00:11:24;8.07;;;3.37;;
64011;SDS011;50211;52.768;12.124;2022-12-07T00:13:56;7.43;;;3.77;;
64011;SDS011;50211;52.768;12.124;2022-12-07T00:16:24;7.73;;;3.97;;
64011;SDS011;50211;52.768;12.124;2022-12-07T00:18:52;8.23;;;4.23;;
64011;SDS011;50211;52.768;12.124;2022-12-07T00:21:22;10.77;;;4.20;;
64011;SDS011;50211;52.768;12.124;2022-12-07T00:23:50;8.93;;;3.63;;
64011;SDS011;50211;52.768;12.124;2022-12-07T00:26:18;6.23;;;3.10;;
64011;SDS011;50211;52.768;12.124;2022-12-07T00:28:49;7.57;;;3.90;;
64011;SDS011;50211;52.768;12.124;2022-12-07T00:31:16;9.03;;;3.80;;
64011;SDS011;50211;52.768;12.124;2022-12-07T00:33:44;7.00;;;3.67;;
64011;SDS011;50211;52.768;12.124;2022-12-07T00:36:12;10.40;;;3.63;;
64011;SDS011;50211;52.768;12.124;2022-12-07T00:38:40;8.30;;;4.17;;
64011;SDS011;50211;52.768;12.124;2022-12-07T00:41:07;8.20;;;3.80;;
64011;SDS011;50211;52.768;12.124;2022-12-07T00:43:42;9.30;;;3.90;;
64011;SDS011;50211;52.768;12.124;2022-12-07T00:46:09;9.57;;;4.07;;
64011;SDS011;50211;52.768;12.124;2022-12-07T00:48:35;12.33;;;4.00;;
64011;SDS011;50211;52.768;12.124;2022-12-07T00:51:01;8.40;;;4.20;;
64011;SDS011;50211;52.768;12.124;2022-12-07T00:53:27;12.33;;;5.70;;
64011;SDS011;50211;52.768;12.124;2022-12-07T00:55:53;10.63;;;4.93;;
64011;SDS011;50211;52.768;12.124;2022-12-07T00:58:20;9.77;;;4.70;;
64011;SDS011;50211;52.768;12.124;2022-12-07T01:00:45;12.53;;;4.97;;
64011;SDS011;50211;52.768;12.124;2022-12-07T01:03:12;11.27;;;5.37;;
64011;SDS011;50211;52.768;12.124;2022-12-07T01:05:38;9.23;;;5.03;;
64011;SDS011;50211;52.768;12.124;2022-12-07T01:08:04;15.30;;;4.60;;
64011;SDS011;50211;52.768;12.124;2022-12-07T01:10:31;9.30;;;4.47;;
64011;SDS011;50211;52.768;12.124;2022-12-07T01:12:56;11.00;;;4.93;;
64011;SDS011;50211;52.768;12.124;2022-12-07T01:15:22;13.87;;;5.23;;
64011;SDS011;50211;52.768;12.124;2022-12-07T01:17:48;12.87;;;5.00;;
64011;SDS011;50211;52.768;12.124;2022-12-07T01:20:13;12.90;;;5.20;;
64011;SDS011;50211;52.768;12.124;2022-12-07T01:22:40;14.17;;;5.43;;
64011;SDS011;50211;52.768;12.124;2022-12-07T01:25:07;15.23;;;7.10;;
64011;SDS011;50211;52.768;12.124;2022-12-07T01:27:33;17.00;;;6.93;;
64011;SDS011;50211;52.768;12.124;2022-12-07T01:29:59;19.10;;;8.10;;
64011;SDS011;50211;52.768;12.124;2022-12-07T01:32:26;18.20;;;7.37;;
64011;SDS011;50211;52.768;12.124;2022-12-07T01:34:51;23.03;;;8.07;;
64011;SDS011;50211;52.768;12.124;2022-12-07T01:37:17;21.20;;;8.40;;
64011;SDS011;50211;52.768;12.124;2022-12-07T01:39:42;23.03;;;8.47;;
64011;SDS011;50211;52.768;12.124;2022-12-07T01:42:11;24.43;;;9.60;;
64011;SDS011;50211;52.768;12.124;2022-12-07T01:47:44;22.83;;;8.87;;
64011;SDS011;50211;52.768;12.124;2022-12-07T01:50:17;25.63;;;10.17;;
64011;SDS011;50211;52.768;12.124;2022-12-07T01:52:43;27.77;;;10.60;;
64011;SDS011;50211;52.768;12.124;2022-12-07T01:55:13;27.63;;;11.07;;
64011;SDS011;50211;52.768;12.124;2022-12-07T01:57:42;23.30;;;9.40;;
64011;SDS011;50211;52.768;12.124;2022-12-07T02:00:12;23.37;;;10.07;;
64011;SDS011;50211;52.768;12.124;2022-12-07T02:02:47;25.77;;;9.03;;
64011;SDS011;50211;52.768;12.124;2022-12-07T02:05:18;25.23;;;9.47;;
64011;SDS011;50211;52.768;12.124;2022-12-07T02:07:44;26.67;;;11.60;;
64011;SDS011;50211;52.768;12.124;2022-12-07T02:10:16;32.43;;;10.63;;
64011;SDS011;50211;52.768;12.124;2022-12-07T02:12:42;29.33;;;11.93;;
64011;SDS011;50211;52.768;12.124;2022-12-07T02:15:11;30.70;;;10.67;;
64011;SDS011;50211;52.768;12.124;2022-12-07T02:17:41;31.13;;;11.60;;
64011;SDS011;50211;52.768;12.124;2022-12-07T02:20:33;30.13;;;11.47;;
64011;SDS011;50211;52.768;12.124;2022-12-07T02:23:21;30.03;;;11.63;;
64011;SDS011;50211;52.768;12.124;2022-12-07T02:26:02;34.50;;;12.33;;
64011;SDS011;50211;52.768;12.124;2022-12-07T02:31:26;34.00;;;13.17;;
64011;SDS011;50211;52.768;12.124;2022-12-07T02:33:58;39.73;;;13.83;;
64011;SDS011;50211;52.768;12.124;2022-12-07T02:36:36;31.67;;;12.27;;
64011;SDS011;50211;52.768;12.124;2022-12-07T02:39:09;33.63;;;11.93;;
64011;SDS011;50211;52.768;12.124;2022-12-07T02:41:47;37.07;;;13.73;;
64011;SDS011;50211;52.768;12.124;2022-12-07T02:44:18;40.03;;;14.50;;
64011;SDS011;50211;52.768;12.124;2022-12-07T02:46:49;37.37;;;12.57;;
64011;SDS011;50211;52.768;12.124;2022-12-07T02:49:18;40.57;;;13.77;;
64011;SDS011;50211;52.768;12.124;2022-12-07T02:51:47;37.13;;;13.87;;
64011;SDS011;50211;52.768;12.124;2022-12-07T02:54:14;41.67;;;14.07;;
64011;SDS011;50211;52.768;12.124;2022-12-07T03:02:03;33.37;;;13.23;;
64011;SDS011;50211;52.768;12.124;2022-12-07T03:07:29;34.10;;;12.40;;
64011;SDS011;50211;52.768;12.124;2022-12-07T03:13:09;38.63;;;13.97;;
64011;SDS011;50211;52.768;12.124;2022-12-07T03:16:04;37.53;;;14.93;;
64011;SDS011;50211;52.768;12.124;2022-12-07T03:18:42;38.93;;;13.27;;
64011;SDS011;50211;52.768;12.124;2022-12-07T03:21:23;31.53;;;14.23;;
64011;SDS011;50211;52.768;12.124;2022-12-07T03:23:54;42.17;;;15.73;;
64011;SDS011;50211;52.768;12.124;2022-12-07T03:26:24;40.83;;;15.53;;
64011;SDS011;50211;52.768;12.124;2022-12-07T03:28:55;38.17;;;14.10;;
64011;SDS011;50211;52.768;12.124;2022-12-07T03:31:26;35.97;;;14.53;;
64011;SDS011;50211;52.768;12.124;2022-12-07T03:34:04;38.20;;;14.30;;
64011;SDS011;50211;52.768;12.124;2022-12-07T03:39:14;39.50;;;13.73;;
64011;SDS011;50211;52.768;12.124;2022-12-07T03:41:47;42.30;;;13.90;;
64011;SDS011;50211;52.768;12.124;2022-12-07T03:44:14;29.00;;;12.20;;
64011;SDS011;50211;52.768;12.124;2022-12-07T03:46:44;30.87;;;13.03;;
64011;SDS011;50211;52.768;12.124;2022-12-07T03:49:30;34.07;;;13.03;;
64011;SDS011;50211;52.768;12.124;2022-12-07T03:52:12;37.60;;;14.47;;
64011;SDS011;50211;52.768;12.124;2022-12-07T03:54:46;27.87;;;12.07;;
64011;SDS011;50211;52.768;12.124;2022-12-07T03:57:19;32.00;;;11.73;;
64011;SDS011;50211;52.768;12.124;2022-12-07T03:59:47;36.10;;;12.07;;
64011;SDS011;50211;52.768;12.124;2022-12-07T04:02:13;30.17;;;11.53;;
64011;SDS011;50211;52.768;12.124;2022-12-07T04:04:39;32.07;;;11.60;;
64011;SDS011;50211;52.768;12.124;2022-12-07T04:07:06;32.13;;;12.20;;
64011;SDS011;50211;52.768;12.124;2022-12-07T04:09:31;28.50;;;10.13;;
64011;SDS011;50211;52.768;12.124;2022-12-07T04:11:57;27.27;;;11.23;;
64011;SDS011;50211;52.768;12.124;2022-12-07T04:14:22;24.90;;;8.97;;
64011;SDS011;50211;52.768;12.124;2022-12-07T04:19:15;22.27;;;8.90;;
64011;SDS011;50211;52.768;12.124;2022-12-07T04:21:42;27.97;;;9.40;;
64011;SDS011;50211;52.768;12.124;2022-12-07T04:24:08;24.37;;;9.20;;
64011;SDS011;50211;52.768;12.124;2022-12-07T04:26:33;20.40;;;9.27;;
64011;SDS011;50211;52.768;12.124;2022-12-07T04:28:59;21.30;;;9.13;;
64011;SDS011;50211;52.768;12.124;2022-12-07T04:31:25;21.23;;;8.13;;
64011;SDS011;50211;52.768;12.124;2022-12-07T04:33:50;19.80;;;8.70;;
64011;SDS011;50211;52.768;12.124;2022-12-07T04:36:16;17.60;;;8.07;;
64011;SDS011;50211;52.768;12.124;2022-12-07T04:38:42;17.77;;;7.27;;
64011;SDS011;50211;52.768;12.124;2022-12-07T04:41:07;20.97;;;8.87;;
64011;SDS011;50211;52.768;12.124;2022-12-07T04:43:34;16.87;;;7.40;;
64011;SDS011;50211;52.768;12.124;2022-12-07T04:46:00;14.80;;;6.47;;
64011;SDS011;50211;52.768;12.124;2022-12-07T04:48:26;21.93;;;7.30;;
64011;SDS011;50211;52.768;12.124;2022-12-07T04:50:52;14.07;;;6.10;;
64011;SDS011;50211;52.768;12.124;2022-12-07T04:53:17;14.83;;;6.87;;
64011;SDS011;50211;52.768;12.124;2022-12-07T04:55:43;15.20;;;6.70;;
64011;SDS011;50211;52.768;12.124;2022-12-07T04:58:10;14.40;;;6.23;;
64011;SDS011;50211;52.768;12.124;2022-12-07T05:00:36;15.57;;;6.87;;
64011;SDS011;50211;52.768;12.124;2022-12-07T05:03:01;12.97;;;5.23;;
64011;SDS011;50211;52.768;12.124;2022-12-07T05:05:27;15.60;;;6.27;;
64011;SDS011;50211;52.768;12.124;2022-12-07T05:07:53;14.30;;;5.63;;
64011;SDS011;50211;52.768;12.124;2022-12-07T05:10:18;16.63;;;5.43;;
64011;SDS011;50211;52.768;12.124;2022-12-07T05:12:44;21.17;;;6.20;;
64011;SDS011;50211;52.768;12.124;2022-12-07T05:15:10;12.90;;;5.80;;
64011;SDS011;50211;52.768;12.124;2022-12-07T05:17:36;11.33;;;5.53;;
64011;SDS011;50211;52.768;12.124;2022-12-07T05:20:02;14.07;;;5.50;;
64011;SDS011;50211;52.768;12.124;2022-12-07T05:22:28;15.30;;;5.80;;
64011;SDS011;50211;52.768;12.124;2022-12-07T05:24:54;13.13;;;6.10;;
64011;SDS011;50211;52.768;12.124;2022-12-07T05:27:20;12.57;;;5.67;;
64011;SDS011;50211;52.768;12.124;2022-12-07T05:29:46;13.27;;;6.73;;
64011;SDS011;50211;52.768;12.124;2022-12-07T05:32:11;13.70;;;5.73;;
64011;SDS011;50211;52.768;12.124;2022-12-07T05:34:37;12.53;;;5.20;;
64011;SDS011;50211;52.768;12.124;2022-12-07T05:37:03;11.90;;;5.87;;
64011;SDS011;50211;52.768;12.124;2022-12-07T05:39:29;10.53;;;5.03;;
64011;SDS011;50211;52.768;12.124;2022-12-07T05:41:54;11.17;;;5.87;;
64011;SDS011;50211;52.768;12.124;2022-12-07T05:44:41;10.97;;;5.73;;
64011;SDS011;50211;52.768;12.124;2022-12-07T05:47:09;12.43;;;5.40;;
64011;SDS011;50211;52.768;12.124;2022-12-07T05:49:35;12.13;;;6.00;;
64011;SDS011;50211;52.768;12.124;2022-12-07T05:52:01;11.40;;;4.57;;
64011;SDS011;50211;52.768;12.124;2022-12-07T05:54:27;8.87;;;4.90;;
64011;SDS011;50211;52.768;12.124;2022-12-07T05:56:53;19.63;;;5.77;;
64011;SDS011;50211;52.768;12.124;2022-12-07T05:59:18;10.83;;;4.50;;
64011;SDS011;50211;52.768;12.124;2022-12-07T06:02:02;10.40;;;4.33;;
64011;SDS011;50211;52.768;12.124;2022-12-07T06:04:31;10.03;;;5.07;;
64011;SDS011;50211;52.768;12.124;2022-12-07T06:06:58;10.63;;;4.30;;
64011;SDS011;50211;52.768;12.124;2022-12-07T06:09:24;9.40;;;4.97;;
64011;SDS011;50211;52.768;12.124;2022-12-07T06:11:51;9.07;;;4.10;;
64011;SDS011;50211;52.768;12.124;2022-12-07T06:14:35;15.47;;;4.90;;
64011;SDS011;50211;52.768;12.124;2022-12-07T06:17:01;11.47;;;4.90;;
64011;SDS011;50211;52.768;12.124;2022-12-07T06:19:27;7.90;;;3.67;;
64011;SDS011;50211;52.768;12.124;2022-12-07T06:21:53;10.17;;;4.03;;
64011;SDS011;50211;52.768;12.124;2022-12-07T06:24:19;9.37;;;3.37;;
64011;SDS011;50211;52.768;12.124;2022-12-07T06:26:45;9.27;;;3.80;;
64011;SDS011;50211;52.768;12.124;2022-12-07T06:29:11;10.60;;;4.23;;
64011;SDS011;50211;52.768;12.124;2022-12-07T06:31:37;6.17;;;2.97;;
64011;SDS011;50211;52.768;12.124;2022-12-07T06:34:04;6.87;;;3.30;;
64011;SDS011;50211;52.768;12.124;2022-12-07T06:36:31;5.63;;;2.90;;
64011;SDS011;50211;52.768;12.124;2022-12-07T06:38:56;8.03;;;2.93;;
64011;SDS011;50211;52.768;12.124;2022-12-07T06:41:22;5.40;;;3.13;;
64011;SDS011;50211;52.768;12.124;2022-12-07T06:43:48;4.47;;;3.07;;
64011;SDS011;50211;52.768;12.124;2022-12-07T06:46:14;6.37;;;3.23;;
64011;SDS011;50211;52.768;12.124;2022-12-07T06:48:41;4.90;;;2.77;;
64011;SDS011;50211;52.768;12.124;2022-12-07T06:51:07;6.47;;;2.93;;
64011;SDS011;50211;52.768;12.124;2022-12-07T06:53:33;8.57;;;2.80;;
64011;SDS011;50211;52.768;12.124;2022-12-07T06:55:58;4.87;;;2.67;;
64011;SDS011;50211;52.768;12.124;2022-12-07T06:58:24;9.37;;;3.20;;
64011;SDS011;50211;52.768;12.124;2022-12-07T07:00:50;3.53;;;2.10;;
64011;SDS011;50211;52.768;12.124;2022-12-07T07:03:16;4.10;;;2.53;;
64011;SDS011;50211;52.768;12.124;2022-12-07T07:05:42;7.00;;;2.07;;
64011;SDS011;50211;52.768;12.124;2022-12-07T07:08:08;4.53;;;2.70;;
64011;SDS011;50211;52.768;12.124;2022-12-07T07:10:34;3.77;;;2.53;;
64011;SDS011;50211;52.768;12.124;2022-12-07T07:13:00;3.60;;;2.27;;
64011;SDS011;50211;52.768;12.124;2022-12-07T07:15:26;7.13;;;2.63;;
64011;SDS011;50211;52.768;12.124;2022-12-07T07:17:52;3.63;;;2.17;;
64011;SDS011;50211;52.768;12.124;2022-12-07T07:20:17;2.67;;;2.17;;
64011;SDS011;50211;52.768;12.124;2022-12-07T07:22:43;3.30;;;2.60;;
64011;SDS011;50211;52.768;12.124;2022-12-07T07:25:08;5.67;;;2.43;;
64011;SDS011;50211;52.768;12.124;2022-12-07T07:27:34;4.90;;;2.67;;
64011;SDS011;50211;52.768;12.124;2022-12-07T07:29:59;7.47;;;4.77;;
64011;SDS011;50211;52.768;12.124;2022-12-07T07:32:25;2.70;;;2.30;;
64011;SDS011;50211;52.768;12.124;2022-12-07T07:34:50;5.30;;;3.43;;
64011;SDS011;50211;52.768;12.124;2022-12-07T07:37:16;3.00;;;2.40;;
64011;SDS011;50211;52.768;12.124;2022-12-07T07:39:41;4.33;;;2.23;;
64011;SDS011;50211;52.768;12.124;2022-12-07T07:42:07;3.23;;;2.17;;
64011;SDS011;50211;52.768;12.124;2022-12-07T07:44:33;3.43;;;2.47;;
64011;SDS011;50211;52.768;12.124;2022-12-07T07:46:59;2.73;;;1.73;;
64011;SDS011;50211;52.768;12.124;2022-12-07T07:49:25;1.87;;;1.63;;
64011;SDS011;50211;52.768;12.124;2022-12-07T07:51:50;2.77;;;2.17;;
64011;SDS011;50211;52.768;12.124;2022-12-07T07:54:16;3.77;;;2.27;;
64011;SDS011;50211;52.768;12.124;2022-12-07T07:56:42;3.07;;;2.33;;
64011;SDS011;50211;52.768;12.124;2022-12-07T07:59:07;3.33;;;2.27;;
64011;SDS011;50211;52.768;12.124;2022-12-07T08:01:33;3.87;;;2.47;;
64011;SDS011;50211;52.768;12.124;2022-12-07T08:03:58;4.87;;;2.57;;
64011;SDS011;50211;52.768;12.124;2022-12-07T08:06:24;3.13;;;2.33;;
64011;SDS011;50211;52.768;12.124;2022-12-07T08:08:49;3.77;;;2.87;;
64011;SDS011;50211;52.768;12.124;2022-12-07T08:11:15;3.03;;;2.30;;
64011;SDS011;50211;52.768;12.124;2022-12-07T08:13:40;4.30;;;2.67;;
64011;SDS011;50211;52.768;12.124;2022-12-07T08:16:07;5.53;;;3.07;;
64011;SDS011;50211;52.768;12.124;2022-12-07T08:18:37;6.73;;;3.37;;
64011;SDS011;50211;52.768;12.124;2022-12-07T08:21:04;5.27;;;3.13;;
64011;SDS011;50211;52.768;12.124;2022-12-07T08:23:31;3.57;;;2.90;;
64011;SDS011;50211;52.768;12.124;2022-12-07T08:26:00;5.80;;;2.77;;
64011;SDS011;50211;52.768;12.124;2022-12-07T08:28:27;5.77;;;2.90;;
64011;SDS011;50211;52.768;12.124;2022-12-07T08:30:58;5.03;;;2.87;;
64011;SDS011;50211;52.768;12.124;2022-12-07T08:33:35;5.67;;;3.20;;
64011;SDS011;50211;52.768;12.124;2022-12-07T08:36:05;5.63;;;3.73;;
64011;SDS011;50211;52.768;12.124;2022-12-07T08:38:37;3.10;;;2.23;;
64011;SDS011;50211;52.768;12.124;2022-12-07T08:41:04;5.43;;;3.20;;
64011;SDS011;50211;52.768;12.124;2022-12-07T08:43:30;5.87;;;3.33;;
64011;SDS011;50211;52.768;12.124;2022-12-07T08:48:36;4.73;;;3.10;;
64011;SDS011;50211;52.768;12.124;2022-12-07T08:51:05;5.80;;;3.27;;
64011;SDS011;50211;52.768;12.124;2022-12-07T08:53:31;5.00;;;2.90;;
64011;SDS011;50211;52.768;12.124;2022-12-07T08:55:58;7.97;;;3.17;;
64011;SDS011;50211;52.768;12.124;2022-12-07T08:58:24;5.90;;;3.00;;
64011;SDS011;50211;52.768;12.124;2022-12-07T09:00:49;5.40;;;3.33;;
64011;SDS011;50211;52.768;12.124;2022-12-07T09:03:15;4.23;;;2.47;;
64011;SDS011;50211;52.768;12.124;2022-12-07T09:05:40;5.50;;;3.23;;
64011;SDS011;50211;52.768;12.124;2022-12-07T09:08:06;5.97;;;3.17;;
64011;SDS011;50211;52.768;12.124;2022-12-07T09:10:32;4.80;;;3.37;;
64011;SDS011;50211;52.768;12.124;2022-12-07T09:12:58;5.30;;;2.80;;
64011;SDS011;50211;52.768;12.124;2022-12-07T09:15:25;4.57;;;2.50;;
64011;SDS011;50211;52.768;12.124;2022-12-07T09:17:52;5.80;;;2.67;;
64011;SDS011;50211;52.768;12.124;2022-12-07T09:20:18;4.53;;;2.67;;
64011;SDS011;50211;52.768;12.124;2022-12-07T09:22:43;10.03;;;2.93;;
64011;SDS011;50211;52.768;12.124;2022-12-07T09:25:09;4.47;;;2.57;;
64011;SDS011;50211;52.768;12.124;2022-12-07T09:27:34;6.03;;;2.77;;
64011;SDS011;50211;52.768;12.124;2022-12-07T09:30:00;3.30;;;2.37;;
64011;SDS011;50211;52.768;12.124;2022-12-07T09:32:26;4.73;;;2.20;;
64011;SDS011;50211;52.768;12.124;2022-12-07T09:34:51;7.90;;;2.43;;
64011;SDS011;50211;52.768;12.124;2022-12-07T09:37:17;5.53;;;2.07;;
64011;SDS011;50211;52.768;12.124;2022-12-07T09:39:42;5.67;;;2.60;;
64011;SDS011;50211;52.768;12.124;2022-12-07T09:42:08;7.77;;;2.50;;
64011;SDS011;50211;52.768;12.124;2022-12-07T09:44:51;7.20;;;3.03;;
64011;SDS011;50211;52.768;12.124;2022-12-07T09:47:17;5.07;;;3.00;;
64011;SDS011;50211;52.768;12.124;2022-12-07T09:49:42;4.47;;;2.60;;
64011;SDS011;50211;52.768;12.124;2022-12-07T09:54:34;3.90;;;2.00;;
64011;SDS011;50211;52.768;12.124;2022-12-07T09:57:02;6.37;;;2.67;;
64011;SDS011;50211;52.768;12.124;2022-12-07T09:59:28;6.13;;;2.27;;
64011;SDS011;50211;52.768;12.124;2022-12-07T10:01:54;4.23;;;2.20;;
64011;SDS011;50211;52.768;12.124;2022-12-07T10:04:21;3.87;;;2.47;;
64011;SDS011;50211;52.768;12.124;2022-12-07T10:06:49;4.70;;;2.60;;
64011;SDS011;50211;52.768;12.124;2022-12-07T10:09:16;8.37;;;2.43;;
64011;SDS011;50211;52.768;12.124;2022-12-07T10:14:29;5.03;;;2.60;;
64011;SDS011;50211;52.768;12.124;2022-12-07T10:16:56;4.60;;;2.20;;
64011;SDS011;50211;52.768;12.124;2022-12-07T10:19:23;4.63;;;2.50;;
64011;SDS011;50211;52.768;12.124;2022-12-07T10:22:00;4.63;;;2.07;;
64011;SDS011;50211;52.768;12.124;2022-12-07T10:24:40;4.57;;;2.20;;
64011;SDS011;50211;52.768;12.124;2022-12-07T10:27:17;4.43;;;2.03;;
64011;SDS011;50211;52.768;12.124;2022-12-07T10:29:51;4.63;;;2.40;;
64011;SDS011;50211;52.768;12.124;2022-12-07T10:34:43;3.97;;;2.10;;
64011;SDS011;50211;52.768;12.124;2022-12-07T10:39:53;3.00;;;1.90;;
64011;SDS011;50211;52.768;12.124;2022-12-07T10:42:22;5.17;;;1.90;;
64011;SDS011;50211;52.768;12.124;2022-12-07T10:44:49;6.30;;;3.03;;
64011;SDS011;50211;52.768;12.124;2022-12-07T10:47:34;7.07;;;3.70;;
64011;SDS011;50211;52.768;12.124;2022-12-07T10:50:14;16.07;;;11.13;;
64011;SDS011;50211;52.768;12.124;2022-12-07T10:58:38;9.57;;;2.60;;
64011;SDS011;50211;52.768;12.124;2022-12-07T11:07:10;9.80;;;1.90;;
64011;SDS011;50211;52.768;12.124;2022-12-07T11:10:18;4.57;;;2.33;;
64011;SDS011;50211;52.768;12.124;2022-12-07T11:15:55;5.13;;;2.17;;
64011;SDS011;50211;52.768;12.124;2022-12-07T11:24:26;3.83;;;2.10;;
64011;SDS011;50211;52.768;12.124;2022-12-07T11:27:10;5.33;;;2.50;;
64011;SDS011;50211;52.768;12.124;2022-12-07T11:30:00;2.87;;;2.10;;
64011;SDS011;50211;52.768;12.124;2022-12-07T11:38:23;4.83;;;2.37;;
64011;SDS011;50211;52.768;12.124;2022-12-07T11:41:01;3.97;;;2.70;;
64011;SDS011;50211;52.768;12.124;2022-12-07T11:43:56;6.10;;;2.67;;
64011;SDS011;50211;52.768;12.124;2022-12-07T11:46:50;4.63;;;2.83;;
64011;SDS011;50211;52.768;12.124;2022-12-07T11:49:37;9.23;;;4.07;;
64011;SDS011;50211;52.768;12.124;2022-12-07T11:52:13;8.50;;;3.30;;
64011;SDS011;50211;52.768;12.124;2022-12-07T11:54:52;8.07;;;2.77;;
64011;SDS011;50211;52.768;12.124;2022-12-07T11:57:31;8.27;;;4.00;;
64011;SDS011;50211;52.768;12.124;2022-12-07T12:00:08;5.23;;;3.40;;
64011;SDS011;50211;52.768;12.124;2022-12-07T12:02:44;7.37;;;3.57;;
64011;SDS011;50211;52.768;12.124;2022-12-07T12:05:17;3.90;;;2.37;;
64011;SDS011;50211;52.768;12.124;2022-12-07T12:07:46;7.73;;;2.63;;
64011;SDS011;50211;52.768;12.124;2022-12-07T12:13:31;7.03;;;2.30;;
64011;SDS011;50211;52.768;12.124;2022-12-07T12:19:30;4.07;;;1.80;;
64011;SDS011;50211;52.768;12.124;2022-12-07T12:22:06;5.97;;;2.57;;
64011;SDS011;50211;52.768;12.124;2022-12-07T12:24:40;3.20;;;2.03;;
64011;SDS011;50211;52.768;12.124;2022-12-07T12:27:09;6.40;;;2.43;;
64011;SDS011;50211;52.768;12.124;2022-12-07T12:29:43;4.97;;;2.30;;
64011;SDS011;50211;52.768;12.124;2022-12-07T12:32:16;4.47;;;2.17;;
64011;SDS011;50211;52.768;12.124;2022-12-07T12:42:44;4.17;;;2.10;;
64011;SDS011;50211;52.768;12.124;2022-12-07T12:45:29;3.80;;;1.60;;
64011;SDS011;50211;52.768;12.124;2022-12-07T12:50:33;7.10;;;2.50;;
64011;SDS011;50211;52.768;12.124;2022-12-07T12:53:00;9.87;;;2.40;;
64011;SDS011;50211;52.768;12.124;2022-12-07T13:00:49;4.73;;;2.77;;
64011;SDS011;50211;52.768;12.124;2022-12-07T13:03:53;8.40;;;3.40;;
64011;SDS011;50211;52.768;12.124;2022-12-07T13:08:52;4.03;;;1.90;;
64011;SDS011;50211;52.768;12.124;2022-12-07T13:11:24;3.67;;;2.00;;
64011;SDS011;50211;52.768;12.124;2022-12-07T13:13:50;12.90;;;3.17;;
64011;SDS011;50211;52.768;12.124;2022-12-07T13:19:01;8.50;;;3.70;;
64011;SDS011;50211;52.768;12.124;2022-12-07T13:23:55;12.30;;;3.97;;
64011;SDS011;50211;52.768;12.124;2022-12-07T13:29:11;11.33;;;3.23;;
64011;SDS011;50211;52.768;12.124;2022-12-07T13:31:40;7.77;;;1.97;;
64011;SDS011;50211;52.768;12.124;2022-12-07T13:37:08;9.00;;;4.17;;
64011;SDS011;50211;52.768;12.124;2022-12-07T13:39:44;6.90;;;3.97;;
64011;SDS011;50211;52.768;12.124;2022-12-07T13:42:18;4.27;;;2.40;;
64011;SDS011;50211;52.768;12.124;2022-12-07T13:44:51;7.47;;;3.67;;
64011;SDS011;50211;52.768;12.124;2022-12-07T13:47:36;4.60;;;2.20;;
64011;SDS011;50211;52.768;12.124;2022-12-07T13:50:25;13.43;;;5.50;;
64011;SDS011;50211;52.768;12.124;2022-12-07T13:52:56;10.97;;;4.93;;
64011;SDS011;50211;52.768;12.124;2022-12-07T13:55:23;3.80;;;2.73;;
64011;SDS011;50211;52.768;12.124;2022-12-07T13:57:49;4.43;;;2.47;;
64011;SDS011;50211;52.768;12.124;2022-12-07T14:00:17;10.77;;;4.03;;
64011;SDS011;50211;52.768;12.124;2022-12-07T14:05:24;18.90;;;4.10;;
64011;SDS011;50211;52.768;12.124;2022-12-07T14:07:56;18.80;;;7.63;;
64011;SDS011;50211;52.768;12.124;2022-12-07T14:10:37;18.00;;;7.63;;
64011;SDS011;50211;52.768;12.124;2022-12-07T14:16:24;15.23;;;6.50;;
64011;SDS011;50211;52.768;12.124;2022-12-07T14:18:46;7.20;;;3.73;;
64011;SDS011;50211;52.768;12.124;2022-12-07T14:23:38;33.13;;;13.83;;
64011;SDS011;50211;52.768;12.124;2022-12-07T14:26:07;22.70;;;9.30;;
64011;SDS011;50211;52.768;12.124;2022-12-07T14:28:37;20.07;;;7.70;;
64011;SDS011;50211;52.768;12.124;2022-12-07T14:31:03;21.40;;;9.00;;
64011;SDS011;50211;52.768;12.124;2022-12-07T14:33:34;8.93;;;3.47;;
64011;SDS011;50211;52.768;12.124;2022-12-07T14:36:00;11.77;;;3.70;;
64011;SDS011;50211;52.768;12.124;2022-12-07T14:38:25;21.90;;;8.70;;
64011;SDS011;50211;52.768;12.124;2022-12-07T14:40:51;13.77;;;5.93;;
64011;SDS011;50211;52.768;12.124;2022-12-07T14:43:18;5.73;;;3.13;;
64011;SDS011;50211;52.768;12.124;2022-12-07T14:45:44;19.13;;;6.37;;
64011;SDS011;50211;52.768;12.124;2022-12-07T14:48:11;14.80;;;5.60;;
64011;SDS011;50211;52.768;12.124;2022-12-07T14:50:39;10.90;;;3.47;;
64011;SDS011;50211;52.768;12.124;2022-12-07T14:53:14;36.70;;;12.63;;
64011;SDS011;50211;52.768;12.124;2022-12-07T14:55:41;17.70;;;6.87;;
64011;SDS011;50211;52.768;12.124;2022-12-07T14:58:13;17.43;;;6.40;;
64011;SDS011;50211;52.768;12.124;2022-12-07T15:00:40;5.33;;;2.87;;
64011;SDS011;50211;52.768;12.124;2022-12-07T15:03:06;11.60;;;5.27;;
64011;SDS011;50211;52.768;12.124;2022-12-07T15:05:32;7.33;;;3.63;;
64011;SDS011;50211;52.768;12.124;2022-12-07T15:07:58;11.40;;;4.23;;
64011;SDS011;50211;52.768;12.124;2022-12-07T15:10:25;16.93;;;4.53;;
64011;SDS011;50211;52.768;12.124;2022-12-07T15:12:55;24.77;;;6.47;;
64011;SDS011;50211;52.768;12.124;2022-12-07T15:15:41;5.67;;;1.93;;
64011;SDS011;50211;52.768;12.124;2022-12-07T15:18:07;7.10;;;2.47;;
64011;SDS011;50211;52.768;12.124;2022-12-07T15:20:32;13.83;;;5.77;;
64011;SDS011;50211;52.768;12.124;2022-12-07T15:22:58;21.43;;;5.53;;
64011;SDS011;50211;52.768;12.124;2022-12-07T15:25:23;16.07;;;5.07;;
64011;SDS011;50211;52.768;12.124;2022-12-07T15:27:49;13.50;;;3.73;;
64011;SDS011;50211;52.768;12.124;2022-12-07T15:30:15;16.60;;;5.80;;
64011;SDS011;50211;52.768;12.124;2022-12-07T15:32:40;15.77;;;4.20;;
64011;SDS011;50211;52.768;12.124;2022-12-07T15:35:06;23.07;;;6.47;;
64011;SDS011;50211;52.768;12.124;2022-12-07T15:37:32;14.77;;;2.73;;
64011;SDS011;50211;52.768;12.124;2022-12-07T15:39:57;11.40;;;2.80;;
64011;SDS011;50211;52.768;12.124;2022-12-07T15:42:23;18.00;;;3.00;;
64011;SDS011;50211;52.768;12.124;2022-12-07T15:44:49;4.80;;;1.90;;
64011;SDS011;50211;52.768;12.124;2022-12-07T15:47:30;8.60;;;2.43;;
64011;SDS011;50211;52.768;12.124;2022-12-07T15:50:07;6.70;;;1.60;;
64011;SDS011;50211;52.768;12.124;2022-12-07T15:52:34;9.73;;;2.17;;
64011;SDS011;50211;52.768;12.124;2022-12-07T15:55:00;4.33;;;1.53;;
64011;SDS011;50211;52.768;12.124;2022-12-07T15:57:28;44.60;;;18.73;;
64011;SDS011;50211;52.768;12.124;2022-12-07T15:59:54;9.33;;;5.67;;
64011;SDS011;50211;52.768;12.124;2022-12-07T16:02:19;13.73;;;3.70;;
64011;SDS011;50211;52.768;12.124;2022-12-07T16:04:45;3.00;;;1.70;;
64011;SDS011;50211;52.768;12.124;2022-12-07T16:07:11;3.93;;;2.93;;
64011;SDS011;50211;52.768;12.124;2022-12-07T16:09:39;8.07;;;2.37;;
64011;SDS011;50211;52.768;12.124;2022-12-07T16:12:04;5.63;;;2.40;;
64011;SDS011;50211;52.768;12.124;2022-12-07T16:14:30;4.97;;;2.90;;
64011;SDS011;50211;52.768;12.124;2022-12-07T16:16:58;3.63;;;2.20;;
64011;SDS011;50211;52.768;12.124;2022-12-07T16:19:24;7.93;;;3.87;;
64011;SDS011;50211;52.768;12.124;2022-12-07T16:21:49;7.13;;;3.20;;
64011;SDS011;50211;52.768;12.124;2022-12-07T16:24:15;8.80;;;5.73;;